Time;durP1;ratioP1;P1;durP2;ratioP2;P2;SDS_P1;SDS_P2;PMS_P1;PMS_P2;Temp;Humidity;BMP_temperature;BMP_pressure;BME280_temperature;BME280_humidity;BME280_pressure;Samples;Min_cycle;Max_cycle;Signal;HPM_P1;HPM_P2
2021/12/28 00:00:28;;;;;;;36.90;21.35;;;;;;;-6.00;100.00;140822.33;1615144;87;21163;-61
2021/12/28 00:02:57;;;;;;;39.00;19.62;;;;;;;-6.00;100.00;140822.33;1615141;89;21917;-58
2021/12/28 00:05:27;;;;;;;36.03;18.32;;;;;;;-6.13;100.00;140790.16;1615149;87;21089;-62
2021/12/28 00:07:54;;;;;;;35.78;17.50;;;;;;;-6.08;100.00;140802.56;1614948;87;21070;-58
2021/12/28 00:10:22;;;;;;;37.93;19.80;;;;;;;-6.02;100.00;140817.38;1614941;87;21186;-59
2021/12/28 00:12:49;;;;;;;34.40;18.73;;;;;;;-5.98;100.00;140826.02;1615086;87;21595;-61
2021/12/28 00:17:59;;;;;;;33.35;18.23;;;;;;;-6.01;100.00;140819.83;1615028;87;21618;-60
2021/12/28 00:20:43;;;;;;;34.58;17.95;;;;;;;-5.94;100.00;140837.14;1615303;87;21002;-59
2021/12/28 00:23:14;;;;;;;36.60;19.10;;;;;;;-5.84;100.00;140859.38;1615147;87;21086;-61
2021/12/28 00:25:42;;;;;;;32.38;18.60;;;;;;;-5.79;100.00;140871.73;1615120;87;21085;-58
2021/12/28 00:28:09;;;;;;;40.38;19.77;;;;;;;-5.73;100.00;140886.55;1615093;87;21049;-62
2021/12/28 00:30:36;;;;;;;35.73;20.15;;;;;;;-5.81;99.86;140866.78;1615307;87;21097;-60
2021/12/28 00:33:04;;;;;;;39.50;18.87;;;;;;;-5.90;100.00;140845.78;1615143;87;21583;-59
2021/12/28 00:35:35;;;;;;;34.55;18.02;;;;;;;-5.83;100.00;140863.05;1615206;87;21093;-62
2021/12/28 00:38:04;;;;;;;31.60;18.67;;;;;;;-5.74;100.00;140884.09;1615274;89;21113;-61
2021/12/28 00:40:33;;;;;;;32.28;15.63;;;;;;;-5.72;100.00;140889.05;1615074;87;21089;-61
2021/12/28 00:43:01;;;;;;;36.00;17.37;;;;;;;-5.89;99.75;140849.45;1615129;87;21046;-59
2021/12/28 00:45:29;;;;;;;36.95;18.45;;;;;;;-6.03;99.95;140813.66;1615039;87;21069;-61
2021/12/28 00:47:56;;;;;;;34.58;19.98;;;;;;;-6.11;100.00;140795.11;1615103;87;21069;-59
2021/12/28 00:50:26;;;;;;;32.98;17.57;;;;;;;-6.06;100.00;140807.47;1615257;87;21055;-61
2021/12/28 00:52:55;;;;;;;29.95;16.35;;;;;;;-5.93;100.00;140839.59;1615242;87;21069;-61
2021/12/28 00:55:22;;;;;;;32.73;18.35;;;;;;;-5.84;100.00;140859.38;1615249;87;21076;-62
2021/12/28 00:57:50;;;;;;;30.23;16.00;;;;;;;-5.76;100.00;140879.14;1615321;89;21069;-62
2021/12/28 01:00:25;;;;;;;30.45;18.40;;;;;;;-5.73;100.00;140886.55;1615213;87;21085;-57
2021/12/28 01:02:52;;;;;;;32.95;16.57;;;;;;;-5.83;99.45;140863.05;1584047;91;21102;-61
2021/12/28 01:05:20;;;;;;;34.05;19.00;;;;;;;-5.95;99.44;140834.69;1615312;87;21120;-59
2021/12/28 01:07:48;;;;;;;35.65;16.73;;;;;;;-5.95;99.70;140834.69;1615037;89;21046;-63
2021/12/28 01:10:20;;;;;;;29.18;15.80;;;;;;;-5.96;99.45;140832.19;1615096;87;21105;-58
2021/12/28 01:12:49;;;;;;;31.70;17.00;;;;;;;-5.98;99.31;140827.28;1615273;87;21536;-62
2021/12/28 01:15:17;;;;;;;27.93;16.10;;;;;;;-5.99;99.13;140824.78;1614989;87;21085;-63
2021/12/28 01:17:44;;;;;;;29.02;16.27;;;;;;;-5.96;99.01;140832.19;1615482;89;21606;-61
2021/12/28 01:20:13;;;;;;;29.10;16.50;;;;;;;-5.93;98.98;140839.59;1615178;87;21085;-60
2021/12/28 01:22:43;;;;;;;28.62;17.40;;;;;;;-5.91;99.06;140844.50;1615251;87;21069;-63
2021/12/28 01:25:12;;;;;;;34.50;17.57;;;;;;;-5.87;98.64;140853.19;1615232;87;21033;-60
2021/12/28 01:27:40;;;;;;;34.90;18.85;;;;;;;-5.83;98.74;140861.83;1615334;87;21018;-60
2021/12/28 01:30:09;;;;;;;32.73;16.77;;;;;;;-5.73;98.55;140887.78;1614977;87;21938;-59
2021/12/28 01:32:37;;;;;;;34.13;17.45;;;;;;;-5.70;97.77;140893.95;1615320;87;21512;-60
2021/12/28 01:35:06;;;;;;;33.53;19.42;;;;;;;-5.68;97.71;140898.91;1615315;87;21061;-60
2021/12/28 01:37:35;;;;;;;30.77;17.73;;;;;;;-5.70;97.22;140893.95;1615264;87;21531;-61
2021/12/28 01:40:04;;;;;;;32.67;17.87;;;;;;;-5.75;97.09;140881.59;1615064;87;21061;-60
2021/12/28 01:42:32;;;;;;;28.35;16.07;;;;;;;-5.76;97.13;140880.38;1615368;89;21093;-60
2021/12/28 01:44:58;;;;;;;33.05;17.35;;;;;;;-5.86;97.05;140854.41;1615207;87;21118;-60
2021/12/28 01:47:27;;;;;;;26.23;15.78;;;;;;;-5.85;97.29;140858.14;1615062;87;21122;-60
2021/12/28 01:49:54;;;;;;;40.48;18.92;;;;;;;-5.85;97.09;140856.88;1615346;87;21504;-60
2021/12/28 01:52:22;;;;;;;30.92;18.25;;;;;;;-5.95;97.22;140834.69;1615240;87;21149;-60
2021/12/28 01:54:50;;;;;;;32.85;17.73;;;;;;;-5.96;97.54;140830.97;1614978;87;21058;-60
2021/12/28 01:57:19;;;;;;;33.18;18.77;;;;;;;-6.01;97.43;140819.83;1615357;87;21081;-59
2021/12/28 01:59:46;;;;;;;28.85;16.32;;;;;;;-6.09;97.82;140800.06;1615036;89;21125;-60
2021/12/28 02:02:12;;;;;;;34.58;19.52;;;;;;;-6.03;98.09;140813.66;1615203;87;21077;-60
2021/12/28 02:04:41;;;;;;;36.03;19.15;;;;;;;-5.93;97.96;140839.59;1615045;87;21152;-62
2021/12/28 02:07:07;;;;;;;32.20;18.15;;;;;;;-5.89;97.73;140849.45;1614961;87;21541;-60
2021/12/28 02:09:33;;;;;;;32.13;18.80;;;;;;;-5.79;97.81;140872.95;1615189;87;21077;-60
2021/12/28 02:12:02;;;;;;;31.60;19.35;;;;;;;-5.67;97.63;140902.64;1615031;87;21133;-62
2021/12/28 02:14:29;;;;;;;34.43;18.52;;;;;;;-5.68;97.10;140900.13;1614987;87;21065;-59
2021/12/28 02:16:55;;;;;;;31.93;17.70;;;;;;;-5.71;96.90;140892.72;1615182;87;21037;-61
2021/12/28 02:19:23;;;;;;;34.55;17.25;;;;;;;-5.83;96.85;140861.83;1615017;87;21081;-59
2021/12/28 02:21:49;;;;;;;32.98;19.95;;;;;;;-5.95;97.11;140834.69;1615246;87;21061;-59
2021/12/28 02:24:16;;;;;;;32.80;17.48;;;;;;;-5.92;97.51;140840.83;1615185;87;21089;-60
2021/12/28 02:26:42;;;;;;;33.05;18.87;;;;;;;-5.84;97.54;140859.38;1615220;87;22002;-59
2021/12/28 02:29:10;;;;;;;34.08;18.62;;;;;;;-5.74;97.44;140884.09;1614976;87;21081;-60
2021/12/28 02:31:37;;;;;;;33.42;18.55;;;;;;;-5.68;96.89;140898.91;1614992;87;21073;-62
2021/12/28 02:34:04;;;;;;;35.73;18.07;;;;;;;-5.68;96.68;140898.91;1615180;88;21065;-60
2021/12/28 02:36:32;;;;;;;35.43;18.23;;;;;;;-5.61;96.67;140916.22;1614986;87;21129;-62
2021/12/28 02:38:59;;;;;;;30.70;17.32;;;;;;;-5.61;96.40;140916.22;1614979;87;21085;-59
2021/12/28 02:41:26;;;;;;;32.08;18.45;;;;;;;-5.56;96.12;140928.59;1615261;89;21065;-59
2021/12/28 02:44:02;;;;;;;35.63;17.82;;;;;;;-5.56;95.94;140928.59;1615169;87;21057;-60
2021/12/28 02:46:30;;;;;;;36.25;17.98;;;;;;;-5.55;95.63;140929.81;1614979;88;21081;-60
2021/12/28 02:48:56;;;;;;;32.45;16.97;;;;;;;-5.56;95.41;140928.59;1615175;87;21065;-60
2021/12/28 02:51:23;;;;;;;32.38;18.32;;;;;;;-5.63;95.19;140911.28;1614979;87;21077;-59
2021/12/28 02:53:49;;;;;;;31.90;17.45;;;;;;;-5.72;95.37;140890.28;1615253;87;21061;-60
2021/12/28 02:56:19;;;;;;;32.55;18.23;;;;;;;-5.73;95.46;140886.55;1615015;87;21669;-60
2021/12/28 02:58:50;;;;;;;34.88;19.23;;;;;;;-5.76;95.35;140879.14;1615164;89;21053;-59
2021/12/28 03:01:27;;;;;;;33.48;18.80;;;;;;;-5.80;95.48;140870.50;1615099;87;21075;-60
2021/12/28 03:04:05;;;;;;;38.95;18.48;;;;;;;-5.84;95.74;140859.38;1615190;87;21090;-60
2021/12/28 03:06:34;;;;;;;34.10;19.50;;;;;;;-5.81;95.82;140866.78;1615183;87;21201;-59
2021/12/28 03:09:05;;;;;;;32.73;18.85;;;;;;;-5.82;95.59;140864.31;1615157;87;21022;-59
2021/12/28 03:11:32;;;;;;;36.95;19.62;;;;;;;-5.90;95.62;140847.00;1615353;87;21100;-60
2021/12/28 03:14:02;;;;;;;32.10;17.92;;;;;;;-5.90;95.78;140847.00;1615144;89;21109;-61
2021/12/28 03:16:31;;;;;;;33.02;18.37;;;;;;;-5.92;95.91;140842.06;1615224;87;21117;-59
2021/12/28 03:19:00;;;;;;;38.78;21.02;;;;;;;-5.87;95.93;140851.97;1615184;89;21053;-59
2021/12/28 03:21:27;;;;;;;41.20;19.65;;;;;;;-5.78;95.85;140874.19;1615208;88;21061;-60
2021/12/28 03:23:55;;;;;;;37.38;19.27;;;;;;;-5.72;95.39;140889.05;1584782;91;21536;-60
2021/12/28 03:26:24;;;;;;;30.35;16.05;;;;;;;-5.74;95.37;140884.09;1614939;87;21078;-60
2021/12/28 03:28:51;;;;;;;33.48;17.65;;;;;;;-5.71;95.18;140891.50;1615112;87;21196;-60
2021/12/28 03:31:21;;;;;;;36.25;18.12;;;;;;;-5.66;95.06;140903.86;1615005;87;21078;-60
2021/12/28 03:33:53;;;;;;;31.62;18.42;;;;;;;-5.74;94.44;140885.31;1615343;87;21049;-59
2021/12/28 03:36:21;;;;;;;33.28;17.90;;;;;;;-5.74;94.79;140885.31;1615119;87;21073;-62
2021/12/28 03:38:49;;;;;;;29.90;16.32;;;;;;;-5.67;94.50;140901.41;1617194;87;21086;-62
2021/12/28 03:41:19;;;;;;;34.10;18.00;;;;;;;-5.59;94.35;140919.95;1617066;87;21113;-60
2021/12/28 03:43:49;;;;;;;38.55;17.40;;;;;;;-5.55;94.13;140931.05;1617214;87;21049;-61
2021/12/28 03:46:17;;;;;;;30.95;19.15;;;;;;;-5.50;94.01;140942.19;1617420;87;21053;-61
2021/12/28 03:48:45;;;;;;;34.43;18.12;;;;;;;-5.48;93.64;140948.38;1617188;87;21085;-62
2021/12/28 03:51:13;;;;;;;25.77;14.30;;;;;;;-5.43;93.67;140959.50;1616970;87;21434;-62
2021/12/28 03:53:40;;;;;;;33.67;18.57;;;;;;;-5.38;93.28;140970.64;1617287;87;21081;-60
2021/12/28 03:56:09;;;;;;;30.40;16.67;;;;;;;-5.42;93.10;140960.73;1617092;87;21073;-60
2021/12/28 03:58:40;;;;;;;34.58;16.93;;;;;;;-5.41;92.70;140963.23;1617309;87;21077;-61
2021/12/28 04:01:11;;;;;;;31.62;18.27;;;;;;;-5.46;92.60;140953.31;1617337;87;21052;-60
2021/12/28 04:03:38;;;;;;;33.18;17.10;;;;;;;-5.47;92.50;140950.88;1617310;87;21038;-60
2021/12/28 04:06:08;;;;;;;32.63;17.20;;;;;;;-5.53;92.43;140936.00;1617335;87;21049;-60
2021/12/28 04:08:39;;;;;;;37.15;17.62;;;;;;;-5.53;92.31;140936.00;1617324;87;21060;-61
2021/12/28 04:11:25;;;;;;;39.73;20.08;;;;;;;-5.50;92.30;140943.41;1617095;87;21113;-61
2021/12/28 04:13:46;;;;;;;33.23;17.92;;;;;;;-5.47;92.36;140949.59;1615908;87;21061;-60
2021/12/28 04:19:35;;;;;;;35.52;18.07;;;;;;;-5.44;92.08;140957.05;1617314;89;21073;-59
2021/12/28 04:22:02;;;;;;;35.00;19.07;;;;;;;-5.43;92.00;140958.28;1617184;89;21073;-60
2021/12/28 04:24:29;;;;;;;35.63;18.73;;;;;;;-5.42;91.88;140960.73;1617327;87;21567;-60
2021/12/28 04:26:56;;;;;;;33.40;18.60;;;;;;;-5.43;91.27;140958.28;1617289;87;21093;-60
2021/12/28 04:29:24;;;;;;;31.93;17.45;;;;;;;-5.46;91.29;140952.09;1617269;89;21181;-59
2021/12/28 04:31:50;;;;;;;31.80;18.55;;;;;;;-5.57;90.82;140926.14;1617084;89;21114;-60
2021/12/28 04:34:18;;;;;;;32.83;18.57;;;;;;;-5.68;91.08;140900.13;1617325;87;21105;-59
2021/12/28 04:36:47;;;;;;;38.08;18.95;;;;;;;-5.73;91.15;140886.55;1616899;87;21049;-61
2021/12/28 04:39:14;;;;;;;31.48;17.57;;;;;;;-5.67;91.44;140901.41;1615138;89;21121;-60
2021/12/28 04:41:41;;;;;;;34.27;18.50;;;;;;;-5.62;91.15;140912.50;1615116;87;21115;-59
2021/12/28 04:44:09;;;;;;;30.95;17.48;;;;;;;-5.56;91.15;140928.59;1615277;87;21106;-59
2021/12/28 04:46:36;;;;;;;30.80;17.25;;;;;;;-5.48;90.54;140947.14;1615390;89;21089;-60
2021/12/28 04:49:03;;;;;;;33.15;19.32;;;;;;;-5.49;90.17;140945.91;1615067;87;21081;-60
2021/12/28 04:51:30;;;;;;;32.95;17.75;;;;;;;-5.47;90.17;140950.88;1615178;87;21693;-59
2021/12/28 04:53:59;;;;;;;32.90;18.48;;;;;;;-5.42;90.08;140961.95;1615184;87;21045;-59
2021/12/28 04:56:26;;;;;;;34.38;17.52;;;;;;;-5.35;89.71;140978.06;1614987;87;21118;-59
2021/12/28 04:58:52;;;;;;;33.85;18.87;;;;;;;-5.37;89.17;140973.09;1615241;89;21141;-62
2021/12/28 05:01:19;;;;;;;34.43;17.98;;;;;;;-5.48;89.46;140948.38;1615227;87;21054;-62
2021/12/28 05:03:46;;;;;;;33.70;18.55;;;;;;;-5.45;89.34;140954.55;1615156;89;21077;-57
2021/12/28 05:06:15;;;;;;;36.03;18.37;;;;;;;-5.43;89.17;140958.28;1614993;87;21555;-60
2021/12/28 05:08:41;;;;;;;33.73;18.75;;;;;;;-5.40;89.14;140965.69;1615262;87;21030;-58
2021/12/28 05:11:08;;;;;;;33.58;19.02;;;;;;;-5.41;88.74;140963.23;1615028;87;21114;-60
2021/12/28 05:13:34;;;;;;;34.60;19.50;;;;;;;-5.46;88.75;140953.31;1615227;87;21571;-60
2021/12/28 05:16:01;;;;;;;35.78;18.45;;;;;;;-5.48;88.69;140948.38;1615019;87;21093;-63
2021/12/28 05:18:28;;;;;;;35.17;17.50;;;;;;;-5.45;88.76;140954.55;1615054;87;21070;-60
2021/12/28 05:20:54;;;;;;;37.58;17.52;;;;;;;-5.46;88.43;140952.09;1615276;87;21547;-59
2021/12/28 05:23:21;;;;;;;45.58;19.20;;;;;;;-5.48;88.44;140948.38;1615006;87;21198;-60
2021/12/28 05:25:48;;;;;;;32.70;17.87;;;;;;;-5.52;88.24;140938.50;1615149;89;21575;-60
2021/12/28 05:28:15;;;;;;;28.05;16.25;;;;;;;-5.56;88.44;140928.59;1615059;87;21037;-60
2021/12/28 05:30:41;;;;;;;36.33;18.87;;;;;;;-5.57;88.46;140926.14;1615238;87;21058;-60
2021/12/28 05:33:08;;;;;;;38.95;20.65;;;;;;;-5.68;88.36;140898.91;1615256;87;21089;-60
2021/12/28 05:35:35;;;;;;;35.15;20.02;;;;;;;-5.70;88.50;140895.23;1615350;87;21622;-61
2021/12/28 05:38:02;;;;;;;33.78;19.95;;;;;;;-5.72;88.60;140889.05;1614929;87;21579;-60
2021/12/28 05:40:29;;;;;;;38.80;19.82;;;;;;;-5.73;88.59;140886.55;1615015;87;21038;-60
2021/12/28 05:42:56;;;;;;;36.45;20.48;;;;;;;-5.82;88.23;140864.31;1615077;87;21037;-60
2021/12/28 05:45:23;;;;;;;38.83;19.92;;;;;;;-6.03;88.66;140814.92;1614952;87;21081;-60
2021/12/28 05:47:50;;;;;;;37.35;19.65;;;;;;;-6.06;89.27;140806.25;1615121;89;21550;-60
2021/12/28 05:50:17;;;;;;;39.60;20.52;;;;;;;-6.01;89.47;140819.83;1615021;87;21097;-62
2021/12/28 05:52:43;;;;;;;39.48;21.57;;;;;;;-6.00;89.55;140822.33;1615035;87;21121;-60
2021/12/28 05:55:10;;;;;;;36.58;19.35;;;;;;;-5.97;89.52;140829.73;1615117;89;21049;-58
2021/12/28 05:57:37;;;;;;;38.30;20.95;;;;;;;-5.99;89.29;140824.78;1615336;87;21014;-60
2021/12/28 06:00:08;;;;;;;39.13;20.23;;;;;;;-6.02;89.43;140816.16;1615197;87;21046;-61
2021/12/28 06:02:36;;;;;;;36.13;20.52;;;;;;;-6.04;89.60;140812.42;1615423;87;21507;-60
2021/12/28 06:05:04;;;;;;;39.13;20.45;;;;;;;-6.02;89.66;140817.38;1615076;87;21575;-60
2021/12/28 06:07:31;;;;;;;36.58;21.23;;;;;;;-5.99;89.48;140823.56;1615220;87;21069;-63
2021/12/28 06:09:57;;;;;;;41.88;21.40;;;;;;;-5.93;89.57;140839.59;1615019;89;21049;-61
2021/12/28 06:12:24;;;;;;;35.35;19.82;;;;;;;-5.85;89.56;140856.88;1584995;90;21090;-60
2021/12/28 06:14:53;;;;;;;37.00;20.27;;;;;;;-5.85;89.13;140858.14;1615008;87;21148;-61
2021/12/28 06:17:19;;;;;;;35.73;20.12;;;;;;;-5.96;88.66;140830.97;1615140;87;21588;-61
2021/12/28 06:19:46;;;;;;;38.80;21.95;;;;;;;-6.05;88.99;140809.97;1584972;90;21054;-59
2021/12/28 06:22:12;;;;;;;39.20;21.40;;;;;;;-6.00;89.22;140821.11;1614908;87;21563;-61
2021/12/28 06:24:40;;;;;;;35.92;19.70;;;;;;;-5.98;89.06;140827.28;1615002;89;21086;-59
2021/12/28 06:27:07;;;;;;;36.77;19.57;;;;;;;-5.95;89.03;140834.69;1614991;87;21081;-63
2021/12/28 06:29:34;;;;;;;38.73;20.68;;;;;;;-5.91;88.56;140844.50;1615173;87;21101;-62
2021/12/28 06:32:01;;;;;;;35.78;19.40;;;;;;;-5.86;88.81;140855.64;1614970;87;21109;-63
2021/12/28 06:34:27;;;;;;;35.78;19.17;;;;;;;-5.77;88.69;140876.69;1614977;89;21579;-61
2021/12/28 06:36:53;;;;;;;39.10;21.62;;;;;;;-5.73;88.47;140887.78;1615124;89;21097;-61
2021/12/28 06:39:20;;;;;;;40.12;20.90;;;;;;;-5.69;88.16;140896.45;1616839;87;21051;-61
2021/12/28 06:41:47;;;;;;;32.40;18.05;;;;;;;-5.63;87.97;140911.28;1617004;87;21117;-62
2021/12/28 06:44:13;;;;;;;34.70;18.95;;;;;;;-5.66;87.44;140903.86;1616950;87;21144;-59
2021/12/28 06:46:40;;;;;;;36.35;19.10;;;;;;;-5.62;87.23;140912.50;1617084;87;21097;-62
2021/12/28 06:49:07;;;;;;;35.17;18.92;;;;;;;-5.68;86.56;140900.13;1617089;88;21539;-56
2021/12/28 06:51:33;;;;;;;38.70;19.35;;;;;;;-5.74;86.38;140885.31;1617186;87;21045;-59
2021/12/28 06:54:00;;;;;;;37.42;19.82;;;;;;;-5.83;86.09;140861.83;1616962;88;21081;-62
2021/12/28 06:56:26;;;;;;;43.00;19.95;;;;;;;-5.87;86.39;140853.19;1617000;87;21081;-62
2021/12/28 06:58:53;;;;;;;35.48;18.73;;;;;;;-5.87;86.26;140851.97;1617198;88;21146;-61
2021/12/28 07:01:19;;;;;;;37.33;19.50;;;;;;;-5.87;86.18;140851.97;1617191;87;21069;-62
2021/12/28 07:03:47;;;;;;;39.08;21.80;;;;;;;-5.86;86.08;140855.64;1616769;87;21077;-58
2021/12/28 07:06:16;;;;;;;37.40;19.75;;;;;;;-5.84;85.86;140859.38;1616931;89;21105;-60
2021/12/28 07:08:43;;;;;;;39.78;20.32;;;;;;;-5.88;85.59;140850.69;1598346;89;21086;-62
2021/12/28 07:11:11;;;;;;;35.68;18.87;;;;;;;-5.90;85.57;140847.00;1587055;90;21054;-58
2021/12/28 07:13:37;;;;;;;37.25;20.20;;;;;;;-5.94;85.28;140837.14;1586953;90;21073;-61
2021/12/28 07:16:04;;;;;;;43.50;22.37;;;;;;;-5.96;85.36;140832.19;1587048;90;21142;-60
2021/12/28 07:18:31;;;;;;;37.17;19.48;;;;;;;-5.99;85.59;140823.56;1586923;90;21051;-59
2021/12/28 07:20:58;;;;;;;35.03;18.80;;;;;;;-6.02;84.93;140817.38;1587098;90;21058;-58
2021/12/28 07:23:25;;;;;;;37.80;22.05;;;;;;;-5.99;85.20;140824.78;1587096;90;21622;-59
2021/12/28 07:25:53;;;;;;;42.40;22.00;;;;;;;-5.94;85.29;140837.14;1587076;90;21542;-60
2021/12/28 07:28:24;;;;;;;41.77;20.02;;;;;;;-5.95;85.22;140834.69;1586834;90;21078;-60
2021/12/28 07:30:51;;;;;;;42.33;21.45;;;;;;;-5.95;85.18;140834.69;1587079;90;21046;-58
2021/12/28 07:33:20;;;;;;;38.90;21.12;;;;;;;-5.86;85.17;140854.41;1586899;90;21043;-58
2021/12/28 07:35:48;;;;;;;42.85;21.05;;;;;;;-5.83;84.91;140861.83;1587083;90;21079;-59
2021/12/28 07:38:15;;;;;;;36.65;21.02;;;;;;;-5.82;84.46;140864.31;1585583;90;21082;-58
2021/12/28 07:40:42;;;;;;;34.15;19.32;;;;;;;-5.85;84.24;140856.88;1582723;90;21094;-58
2021/12/28 07:43:09;;;;;;;49.33;22.27;;;;;;;-5.85;84.27;140858.14;1582703;91;21134;-59
2021/12/28 07:45:35;;;;;;;45.03;21.65;;;;;;;-5.82;83.97;140864.31;1582855;91;21059;-59
2021/12/28 07:48:02;;;;;;;44.00;22.87;;;;;;;-5.82;83.92;140865.55;1582940;90;21544;-61
2021/12/28 07:50:29;;;;;;;47.30;25.17;;;;;;;-5.79;83.86;140871.73;1582758;90;21103;-59
2021/12/28 07:52:56;;;;;;;45.08;22.75;;;;;;;-5.72;84.18;140889.05;1582920;89;21123;-59
2021/12/28 07:55:23;;;;;;;46.63;24.63;;;;;;;-5.63;84.36;140911.28;1583924;89;21188;-59
2021/12/28 07:57:50;;;;;;;57.15;23.55;;;;;;;-5.63;84.20;140910.05;1586481;89;21081;-62
2021/12/28 08:00:19;;;;;;;43.10;23.15;;;;;;;-5.59;84.07;140921.19;1586246;90;21117;-61
2021/12/28 08:02:46;;;;;;;42.23;24.05;;;;;;;-5.59;83.41;140919.95;1586469;90;21046;-62
2021/12/28 08:05:16;;;;;;;38.15;21.20;;;;;;;-5.57;83.69;140924.86;1586452;90;21081;-61
2021/12/28 08:07:43;;;;;;;35.05;19.45;;;;;;;-5.53;82.68;140936.00;1586573;90;21519;-61
2021/12/28 08:10:14;;;;;;;39.20;20.35;;;;;;;-5.54;82.24;140933.55;1586295;90;21664;-62
2021/12/28 08:12:42;;;;;;;37.23;20.77;;;;;;;-5.53;81.71;140936.00;1586573;90;21049;-61
2021/12/28 08:15:10;;;;;;;37.93;19.87;;;;;;;-5.54;81.28;140933.55;1586233;90;21101;-61
2021/12/28 08:17:38;;;;;;;37.70;19.12;;;;;;;-5.53;80.69;140934.78;1586382;90;21122;-61
2021/12/28 08:20:09;;;;;;;39.45;20.85;;;;;;;-5.57;80.32;140924.86;1586262;89;21066;-61
2021/12/28 08:22:37;;;;;;;42.43;21.37;;;;;;;-5.64;80.00;140908.81;1586610;90;21038;-60
2021/12/28 08:25:07;;;;;;;41.70;21.35;;;;;;;-5.65;80.52;140906.31;1586527;90;21094;-62
2021/12/28 08:27:34;;;;;;;35.40;20.08;;;;;;;-5.59;80.48;140921.19;1586551;90;21547;-60
2021/12/28 08:30:04;;;;;;;38.70;20.25;;;;;;;-5.57;79.75;140926.14;1586246;90;21086;-59
2021/12/28 08:32:33;;;;;;;37.13;20.70;;;;;;;-5.63;78.76;140911.28;1586599;90;21558;-60
2021/12/28 08:35:00;;;;;;;36.08;20.50;;;;;;;-5.68;78.95;140900.13;1586312;90;21069;-62
2021/12/28 08:37:27;;;;;;;43.58;22.00;;;;;;;-5.62;79.34;140913.78;1586260;90;21145;-61
2021/12/28 08:39:54;;;;;;;38.75;20.25;;;;;;;-5.61;78.80;140916.22;1595611;89;21108;-61
2021/12/28 08:42:22;;;;;;;43.87;22.20;;;;;;;-5.58;78.69;140923.64;1602488;89;21050;-59
2021/12/28 08:44:50;;;;;;;35.65;19.73;;;;;;;-5.56;78.61;140928.59;1603627;89;21078;-58
2021/12/28 08:47:22;;;;;;;37.93;19.50;;;;;;;-5.55;77.96;140931.05;1615456;89;21623;-59
2021/12/28 08:49:48;;;;;;;44.35;21.55;;;;;;;-5.55;77.54;140931.05;1602751;89;21053;-59
2021/12/28 08:52:15;;;;;;;39.70;21.27;;;;;;;-5.54;77.65;140932.31;1594308;89;21229;-60
2021/12/28 08:54:41;;;;;;;40.52;21.82;;;;;;;-5.58;77.39;140923.64;1591380;89;21094;-61
2021/12/28 08:57:08;;;;;;;41.23;21.60;;;;;;;-5.58;77.30;140923.64;1559832;91;21090;-61
2021/12/28 08:59:34;;;;;;;41.63;22.07;;;;;;;-5.56;77.12;140928.59;1592771;89;21113;-61
2021/12/28 09:02:01;;;;;;;40.25;20.80;;;;;;;-5.54;76.77;140933.55;1559527;92;21087;-60
2021/12/28 09:04:28;;;;;;;45.55;21.10;;;;;;;-5.52;76.62;140937.23;1588883;90;21081;-61
2021/12/28 09:06:55;;;;;;;40.70;19.70;;;;;;;-5.50;76.53;140943.41;1589080;89;21077;-61
2021/12/28 09:09:23;;;;;;;37.17;19.90;;;;;;;-5.43;76.59;140959.50;1561867;90;21131;-62
2021/12/28 09:11:49;;;;;;;36.63;19.57;;;;;;;-5.37;75.80;140973.09;1588820;90;21076;-61
2021/12/28 09:14:16;;;;;;;35.35;18.87;;;;;;;-5.36;75.37;140975.59;1591183;89;21061;-60
2021/12/28 09:16:43;;;;;;;40.08;20.80;;;;;;;-5.39;75.04;140968.14;1588904;90;21096;-60
2021/12/28 09:19:09;;;;;;;44.98;20.65;;;;;;;-5.42;74.94;140961.95;1608112;87;21615;-59
2021/12/28 09:21:36;;;;;;;43.45;21.07;;;;;;;-5.39;75.29;140969.42;1618078;89;21134;-62
2021/12/28 09:24:03;;;;;;;42.10;21.70;;;;;;;-5.34;75.14;140980.52;1616516;87;21176;-60
2021/12/28 09:26:30;;;;;;;40.50;20.57;;;;;;;-5.28;74.76;140995.38;1615018;89;21077;-59
2021/12/28 09:28:57;;;;;;;36.30;19.23;;;;;;;-5.29;74.70;140992.88;1615002;88;21076;-61
2021/12/28 09:31:24;;;;;;;34.58;20.23;;;;;;;-5.26;74.30;141000.34;1615314;87;21050;-60
2021/12/28 09:33:50;;;;;;;42.90;21.52;;;;;;;-5.30;73.92;140990.42;1615031;87;21121;-60
2021/12/28 09:36:19;;;;;;;38.50;19.70;;;;;;;-5.33;74.17;140983.02;1614904;87;21249;-59
2021/12/28 09:38:46;;;;;;;41.20;20.85;;;;;;;-5.37;74.40;140973.09;1604771;87;21098;-60
2021/12/28 09:41:15;;;;;;;41.08;21.05;;;;;;;-5.38;73.58;140971.88;1583281;89;21120;-61
2021/12/28 09:43:42;;;;;;;38.83;20.62;;;;;;;-5.39;73.72;140968.14;1604380;89;21127;-62
2021/12/28 09:46:09;;;;;;;37.80;20.85;;;;;;;-5.41;73.57;140963.23;1606183;89;21106;-61
2021/12/28 09:48:37;;;;;;;41.55;19.98;;;;;;;-5.45;73.22;140955.78;1605586;89;21034;-59
2021/12/28 09:51:06;;;;;;;42.43;21.15;;;;;;;-5.53;73.29;140936.00;1596973;88;21019;-61
2021/12/28 09:53:35;;;;;;;39.38;20.15;;;;;;;-5.53;73.54;140936.00;1589912;89;21045;-60
2021/12/28 09:56:04;;;;;;;38.45;20.88;;;;;;;-5.51;73.16;140940.95;1580035;89;21125;-62
2021/12/28 09:58:36;;;;;;;35.85;19.52;;;;;;;-5.48;73.09;140948.38;1586270;88;21098;-59
2021/12/28 10:01:05;;;;;;;43.15;20.52;;;;;;;-5.47;73.24;140950.88;1580160;91;21097;-59
2021/12/28 10:03:32;;;;;;;34.55;19.67;;;;;;;-5.51;72.75;140940.95;1579980;90;21110;-60
2021/12/28 10:06:00;;;;;;;41.90;21.05;;;;;;;-5.58;72.53;140923.64;1579826;90;21159;-61
2021/12/28 10:08:27;;;;;;;39.58;20.25;;;;;;;-5.60;72.75;140917.45;1579879;91;21098;-61
2021/12/28 10:10:58;;;;;;;36.30;19.37;;;;;;;-5.64;72.69;140908.81;1578373;90;21145;-61
2021/12/28 10:13:28;;;;;;;43.10;20.15;;;;;;;-5.64;72.58;140907.59;1580045;90;21508;-59
2021/12/28 10:15:54;;;;;;;39.92;21.35;;;;;;;-5.56;72.85;140928.59;1583337;88;21117;-61
2021/12/28 10:18:21;;;;;;;35.95;19.30;;;;;;;-5.51;72.67;140940.95;1575689;90;21095;-59
2021/12/28 10:20:56;;;;;;;35.17;17.55;;;;;;;-5.49;72.31;140945.91;1571487;91;21130;-61
2021/12/28 10:23:29;;;;;;;39.10;19.32;;;;;;;-5.42;72.17;140960.73;1571457;91;21090;-60
2021/12/28 10:26:05;;;;;;;39.42;20.40;;;;;;;-5.41;71.44;140964.47;1551458;91;21335;-59
2021/12/28 10:28:36;;;;;;;38.60;18.25;;;;;;;-5.43;71.40;140959.50;1570864;91;21133;-62
2021/12/28 10:31:06;;;;;;;;;;;;;;;-5.48;71.14;140947.14;1572975;91;21090;-60
2021/12/28 10:33:37;;;;;;;34.60;17.52;;;;;;;-5.54;71.37;140933.55;1571334;91;20155;-59
2021/12/28 10:36:10;;;;;;;40.43;21.50;;;;;;;-5.53;71.67;140936.00;1571383;91;21139;-62
2021/12/28 10:38:42;;;;;;;38.85;19.60;;;;;;;-5.49;72.08;140945.91;1571449;89;21086;-62
2021/12/28 10:41:19;;;;;;;44.63;21.37;;;;;;;-5.39;72.24;140969.42;1571211;91;21079;-59
2021/12/28 10:43:51;;;;;;;40.28;20.80;;;;;;;-5.31;71.51;140989.19;1571679;91;21055;-62
2021/12/28 10:46:25;;;;;;;34.70;19.12;;;;;;;-5.24;71.85;141006.52;1571868;91;21054;-59
2021/12/28 10:48:59;;;;;;;42.40;20.10;;;;;;;-5.17;71.02;141021.34;1571695;91;21536;-59
2021/12/28 10:51:41;;;;;;;41.63;18.70;;;;;;;-5.12;71.25;141033.72;1571487;91;21067;-61
2021/12/28 10:56:53;;;;;;;38.53;19.35;;;;;;;-5.16;70.63;141023.84;1535770;93;21293;-60
2021/12/28 10:59:33;;;;;;;34.23;17.70;;;;;;;-5.13;70.68;141032.48;1571632;91;21079;-59
2021/12/28 11:02:01;;;;;;;37.60;20.40;;;;;;;-5.11;70.18;141037.44;1571677;91;21600;-60
2021/12/28 11:04:37;;;;;;;44.83;20.12;;;;;;;-5.12;70.12;141034.94;1571422;91;21127;-60
2021/12/28 11:07:07;;;;;;;44.48;20.08;;;;;;;-5.14;70.29;141030.03;1571414;91;21139;-59
2021/12/28 11:09:33;;;;;;;39.33;19.40;;;;;;;-5.04;70.51;141054.78;1571630;91;21086;-61
2021/12/28 11:12:00;;;;;;;39.55;18.25;;;;;;;-4.97;70.03;141069.59;1571507;91;21096;-61
2021/12/28 11:14:29;;;;;;;36.83;20.75;;;;;;;-4.98;69.13;141068.38;1571373;91;21127;-60
2021/12/28 11:17:00;;;;;;;40.48;21.23;;;;;;;-5.06;69.38;141049.81;1571537;91;21078;-60
2021/12/28 11:19:31;;;;;;;43.57;21.97;;;;;;;-5.05;69.73;141052.28;1571807;91;21523;-62
2021/12/28 11:22:03;;;;;;;41.25;21.70;;;;;;;-5.01;69.67;141060.95;1571690;91;21058;-59